Time;durP1;ratioP1;P1;durP2;ratioP2;P2;SDS_P1;SDS_P2;PMS_P1;PMS_P2;Temp;Humidity;BMP_temperature;BMP_pressure;BME280_temperature;BME280_humidity;BME280_pressure;Samples;Min_cycle;Max_cycle;Signal;HPM_P1;HPM_P2
2021/09/21 00:01:04;;;;;;;7.27;5.90;;;;;;;;;;5142448;27;20497;-59
2021/09/21 00:03:32;;;;;;;8.77;6.07;;;;;;;;;;5135352;28;20458;-53
2021/09/21 00:06:01;;;;;;;8.00;6.00;;;;;;;;;;5135921;28;20467;-54
2021/09/21 00:08:29;;;;;;;11.73;5.97;;;;;;;;;;5135596;28;20521;-50
2021/09/21 00:10:57;;;;;;;6.93;5.13;;;;;;;;;;5135301;28;20478;-61
2021/09/21 00:13:24;;;;;;;10.13;5.40;;;;;;;;;;5135581;28;20485;-56
2021/09/21 00:15:53;;;;;;;7.63;5.53;;;;;;;;;;5135971;28;20501;-52
2021/09/21 00:18:21;;;;;;;8.30;6.57;;;;;;;;;;5135508;28;20488;-59
2021/09/21 00:20:57;;;;;;;8.90;7.47;;;;;;;;;;5135188;28;20493;-51
2021/09/21 00:23:26;;;;;;;6.97;5.80;;;;;;;;;;5134419;28;20487;-59
2021/09/21 00:25:53;;;;;;;8.87;6.30;;;;;;;;;;5145320;27;20457;-57
2021/09/21 00:28:50;;;;;;;8.53;6.53;;;;;;;;;;5156037;27;20430;-53
2021/09/21 00:31:20;;;;;;;8.37;5.80;;;;;;;;;;5155704;27;20477;-59
2021/09/21 00:33:50;;;;;;;7.70;5.83;;;;;;;;;;5155919;27;20460;-56
2021/09/21 00:36:48;;;;;;;6.03;5.07;;;;;;;;;;5156515;28;20434;-53
2021/09/21 00:39:17;;;;;;;7.27;5.67;;;;;;;;;;5156574;28;20449;-58
2021/09/21 00:41:44;;;;;;;10.00;6.53;;;;;;;;;;5155782;28;20510;-54
2021/09/21 00:44:14;;;;;;;8.40;6.30;;;;;;;;;;5155703;28;20502;-48
2021/09/21 00:46:41;;;;;;;9.13;5.77;;;;;;;;;;5155880;28;20480;-52
2021/09/21 00:49:08;;;;;;;10.20;5.97;;;;;;;;;;5155728;28;20445;-53
2021/09/21 00:51:56;;;;;;;6.60;5.53;;;;;;;;;;5155708;28;20433;-60
2021/09/21 00:54:25;;;;;;;9.97;6.13;;;;;;;;;;5155652;28;20507;-57
2021/09/21 00:56:54;;;;;;;10.90;6.20;;;;;;;;;;5154537;28;20911;-59
2021/09/21 00:59:21;;;;;;;8.73;6.17;;;;;;;;;;5155997;28;20467;-57
2021/09/21 01:01:49;;;;;;;7.40;5.50;;;;;;;;;;5155870;28;20484;-59
2021/09/21 01:04:17;;;;;;;7.90;6.50;;;;;;;;;;5155758;28;20414;-53
2021/09/21 01:07:00;;;;;;;5.80;4.93;;;;;;;;;;5156015;28;20463;-58
2021/09/21 01:09:29;;;;;;;12.97;6.87;;;;;;;;;;5155539;28;20490;-56
2021/09/21 01:11:58;;;;;;;7.87;5.57;;;;;;;;;;5155815;28;20524;-56
2021/09/21 01:14:34;;;;;;;10.33;6.13;;;;;;;;;;5155537;28;20486;-53
2021/09/21 01:17:02;;;;;;;8.90;6.07;;;;;;;;;;5139180;28;20497;-57
2021/09/21 01:19:30;;;;;;;8.43;5.67;;;;;;;;;;5134674;28;20454;-60
2021/09/21 01:22:06;;;;;;;8.70;6.23;;;;;;;;;;5133934;28;20485;-59
2021/09/21 01:24:33;;;;;;;7.13;5.77;;;;;;;;;;5131318;28;20455;-59
2021/09/21 01:27:01;;;;;;;7.30;5.50;;;;;;;;;;5114407;28;20432;-58
2021/09/21 01:29:35;;;;;;;7.77;5.43;;;;;;;;;;5114161;28;20506;-54
2021/09/21 01:32:02;;;;;;;8.07;5.87;;;;;;;;;;5113574;28;20436;-53
2021/09/21 01:34:29;;;;;;;7.30;5.47;;;;;;;;;;5133098;28;20514;-56
2021/09/21 01:36:57;;;;;;;9.67;6.37;;;;;;;;;;5138214;28;20462;-55
2021/09/21 01:39:25;;;;;;;8.30;5.50;;;;;;;;;;5138602;28;20454;-52
2021/09/21 01:42:02;;;;;;;8.37;6.20;;;;;;;;;;5138381;28;20546;-58
2021/09/21 01:44:30;;;;;;;7.50;5.90;;;;;;;;;;5138738;28;20444;-59
2021/09/21 01:46:58;;;;;;;10.40;6.00;;;;;;;;;;5138766;28;20442;-57
2021/09/21 01:49:28;;;;;;;9.50;6.57;;;;;;;;;;5138238;28;20519;-56
2021/09/21 01:52:03;;;;;;;8.77;5.57;;;;;;;;;;5138641;28;20463;-58
2021/09/21 01:54:49;;;;;;;7.10;5.80;;;;;;;;;;5138654;28;20460;-52
2021/09/21 02:00:02;;;;;;;10.60;5.50;;;;;;;;;;5138833;28;20394;-53
2021/09/21 02:02:29;;;;;;;7.07;6.00;;;;;;;;;;5137602;28;20470;-58
2021/09/21 02:04:56;;;;;;;7.47;6.03;;;;;;;;;;5125210;28;20460;-58
2021/09/21 02:07:40;;;;;;;8.23;6.57;;;;;;;;;;5117557;28;20447;-57
2021/09/21 02:10:09;;;;;;;10.90;6.47;;;;;;;;;;5151492;27;20538;-56
2021/09/21 02:12:37;;;;;;;8.43;5.10;;;;;;;;;;5158626;27;20465;-56
2021/09/21 02:15:22;;;;;;;8.40;5.40;;;;;;;;;;5158282;27;20532;-53
2021/09/21 02:17:50;;;;;;;7.67;6.30;;;;;;;;;;5158405;27;20457;-56
2021/09/21 02:20:17;;;;;;;6.90;5.53;;;;;;;;;;5158597;27;20438;-53
2021/09/21 02:23:02;;;;;;;8.30;6.17;;;;;;;;;;5159517;27;20485;-54
2021/09/21 02:25:31;;;;;;;8.23;6.40;;;;;;;;;;5158581;27;20506;-57
2021/09/21 02:27:58;;;;;;;5.80;5.17;;;;;;;;;;5158659;27;20511;-59
2021/09/21 02:30:39;;;;;;;7.97;5.53;;;;;;;;;;5158634;27;20449;-58
2021/09/21 02:33:08;;;;;;;6.90;4.87;;;;;;;;;;5141268;27;20486;-56
2021/09/21 02:35:36;;;;;;;8.40;5.80;;;;;;;;;;5131308;28;20471;-56
2021/09/21 02:38:04;;;;;;;8.67;5.80;;;;;;;;;;5116873;28;20447;-52
2021/09/21 02:40:32;;;;;;;8.03;5.80;;;;;;;;;;5116988;28;20455;-58
2021/09/21 02:43:00;;;;;;;7.90;5.70;;;;;;;;;;5116540;28;20483;-60
2021/09/21 02:45:34;;;;;;;5.90;5.10;;;;;;;;;;5117018;28;20443;-57
2021/09/21 02:48:02;;;;;;;8.27;5.50;;;;;;;;;;5115823;28;20466;-54
2021/09/21 02:50:29;;;;;;;5.73;4.90;;;;;;;;;;5117525;28;20451;-56
2021/09/21 02:53:07;;;;;;;5.53;4.60;;;;;;;;;;5116693;28;20485;-53
2021/09/21 02:55:39;;;;;;;8.77;5.47;;;;;;;;;;5116652;28;20471;-58
2021/09/21 02:58:06;;;;;;;5.60;4.40;;;;;;;;;;5127804;28;20438;-61
2021/09/21 03:00:40;;;;;;;6.17;4.83;;;;;;;;;;5128790;28;20571;-54
2021/09/21 03:03:08;;;;;;;11.27;5.60;;;;;;;;;;5116157;28;20509;-58
2021/09/21 03:05:39;;;;;;;7.80;6.20;;;;;;;;;;5116019;28;20451;-58
2021/09/21 03:08:44;;;;;;;7.20;4.90;;;;;;;;;;5134920;28;20458;-57
2021/09/21 03:11:15;;;;;;;8.70;5.13;;;;;;;;;;5135071;28;20524;-61
2021/09/21 03:17:06;;;;;;;9.87;5.40;;;;;;;;;;5137039;28;20446;-52
2021/09/21 03:19:27;;;;;;;6.90;4.80;;;;;;;;;;5121012;28;20463;-51
2021/09/21 03:22:05;;;;;;;6.77;4.80;;;;;;;;;;5130179;28;20486;-58
2021/09/21 03:24:33;;;;;;;9.47;4.97;;;;;;;;;;5135531;28;20484;-53
2021/09/21 03:27:02;;;;;;;6.23;4.77;;;;;;;;;;5136213;28;20464;-55
2021/09/21 03:29:31;;;;;;;8.60;4.53;;;;;;;;;;5136952;28;20449;-57
2021/09/21 03:31:59;;;;;;;6.20;4.93;;;;;;;;;;5136522;28;20457;-57
2021/09/21 03:34:26;;;;;;;6.30;4.10;;;;;;;;;;5121216;28;20435;-55
2021/09/21 03:36:53;;;;;;;7.10;4.97;;;;;;;;;;5123282;28;20461;-57
2021/09/21 03:39:21;;;;;;;6.33;4.60;;;;;;;;;;5136290;28;20435;-57
2021/09/21 03:42:08;;;;;;;11.43;4.93;;;;;;;;;;5126859;28;20860;-52
2021/09/21 03:44:35;;;;;;;9.77;4.97;;;;;;;;;;5135668;28;20458;-52
2021/09/21 03:47:03;;;;;;;6.33;4.30;;;;;;;;;;5135610;28;20454;-59
2021/09/21 03:49:58;;;;;;;6.70;4.33;;;;;;;;;;5136938;28;20742;-55
2021/09/21 03:52:25;;;;;;;7.00;5.20;;;;;;;;;;5133826;28;20482;-57
2021/09/21 03:54:53;;;;;;;7.50;4.80;;;;;;;;;;5135668;28;20474;-53
2021/09/21 03:57:25;;;;;;;10.43;5.00;;;;;;;;;;5135815;28;20555;-53
2021/09/21 03:59:52;;;;;;;7.77;4.47;;;;;;;;;;5133317;28;20561;-54
2021/09/21 04:02:20;;;;;;;7.80;4.90;;;;;;;;;;5135344;28;20474;-54
2021/09/21 04:07:51;;;;;;;5.60;4.10;;;;;;;;;;5139755;27;21056;-58
2021/09/21 04:10:19;;;;;;;9.13;5.00;;;;;;;;;;5156448;27;20444;-61
2021/09/21 04:12:58;;;;;;;20.40;6.50;;;;;;;;;;5156004;27;20580;-59
2021/09/21 04:15:25;;;;;;;5.87;4.17;;;;;;;;;;5156128;27;20445;-58
2021/09/21 04:17:55;;;;;;;8.47;5.47;;;;;;;;;;5147181;27;20483;-61
2021/09/21 04:20:26;;;;;;;6.47;4.40;;;;;;;;;;5153660;27;20448;-55
2021/09/21 04:23:00;;;;;;;5.80;3.90;;;;;;;;;;5137899;27;20513;-58
2021/09/21 04:25:48;;;;;;;13.93;5.23;;;;;;;;;;5136263;28;20473;-54
2021/09/21 04:28:19;;;;;;;6.60;4.67;;;;;;;;;;5155264;27;20454;-59
2021/09/21 04:30:53;;;;;;;8.80;4.83;;;;;;;;;;5156595;27;20475;-59
2021/09/21 04:33:21;;;;;;;5.60;4.27;;;;;;;;;;5154865;27;20445;-58
2021/09/21 04:35:52;;;;;;;6.30;4.13;;;;;;;;;;5156319;27;20437;-55
2021/09/21 04:38:19;;;;;;;9.73;5.07;;;;;;;;;;5141624;28;20505;-54
2021/09/21 04:40:47;;;;;;;6.40;4.40;;;;;;;;;;5139108;28;20470;-61
2021/09/21 04:43:17;;;;;;;6.27;4.47;;;;;;;;;;5155751;28;20504;-53
2021/09/21 04:45:44;;;;;;;10.30;5.20;;;;;;;;;;5155429;27;20494;-58
2021/09/21 04:48:11;;;;;;;8.10;5.00;;;;;;;;;;5155721;28;20475;-57
2021/09/21 04:50:45;;;;;;;10.13;6.33;;;;;;;;;;5156081;28;20446;-55
2021/09/21 04:53:16;;;;;;;6.53;4.60;;;;;;;;;;5148051;28;20455;-60
2021/09/21 04:55:46;;;;;;;9.00;5.60;;;;;;;;;;5156402;28;20457;-59
2021/09/21 04:58:30;;;;;;;9.43;4.93;;;;;;;;;;5137322;28;20470;-53
2021/09/21 05:00:58;;;;;;;6.47;4.60;;;;;;;;;;5155846;28;20445;-54
2021/09/21 05:06:29;;;;;;;7.87;4.60;;;;;;;;;;5156269;28;20473;-58
2021/09/21 05:08:56;;;;;;;6.73;4.20;;;;;;;;;;5155809;27;20457;-58
2021/09/21 05:11:25;;;;;;;6.57;3.93;;;;;;;;;;5156838;27;20487;-56
2021/09/21 05:14:14;;;;;;;7.60;4.83;;;;;;;;;;5138970;28;20450;-60
2021/09/21 05:16:48;;;;;;;5.33;4.27;;;;;;;;;;5146035;27;20476;-56
2021/09/21 05:19:36;;;;;;;10.90;4.87;;;;;;;;;;5159401;27;20449;-60
2021/09/21 05:22:12;;;;;;;7.50;4.60;;;;;;;;;;5153108;27;20440;-56
2021/09/21 05:24:43;;;;;;;10.23;4.53;;;;;;;;;;5128384;27;20486;-58
2021/09/21 05:27:10;;;;;;;8.27;4.17;;;;;;;;;;5118791;28;20443;-58
2021/09/21 05:29:51;;;;;;;6.70;4.20;;;;;;;;;;5118460;28;20485;-62
2021/09/21 05:32:33;;;;;;;9.03;4.80;;;;;;;;;;5117439;28;20475;-58
2021/09/21 05:35:00;;;;;;;6.50;4.37;;;;;;;;;;5121458;28;20551;-59
2021/09/21 05:37:32;;;;;;;11.60;4.27;;;;;;;;;;5137952;28;20487;-54
2021/09/21 05:45:47;;;;;;;7.80;4.60;;;;;;;;;;5126812;28;20422;-57
2021/09/21 05:48:35;;;;;;;6.90;4.10;;;;;;;;;;5127288;28;20457;-54
2021/09/21 05:51:06;;;;;;;8.07;4.73;;;;;;;;;;5124273;28;20518;-59
2021/09/21 05:53:33;;;;;;;7.77;4.90;;;;;;;;;;5136143;28;20459;-61
2021/09/21 05:56:11;;;;;;;5.30;3.77;;;;;;;;;;5137875;28;20458;-58
2021/09/21 05:58:39;;;;;;;7.13;4.00;;;;;;;;;;5136467;28;20582;-61
2021/09/21 06:01:06;;;;;;;6.30;4.67;;;;;;;;;;5116351;28;20451;-58
2021/09/21 06:03:40;;;;;;;6.47;4.90;;;;;;;;;;5116110;28;20479;-54
2021/09/21 06:06:07;;;;;;;7.57;4.73;;;;;;;;;;5116400;28;20456;-60
2021/09/21 06:08:38;;;;;;;13.87;5.00;;;;;;;;;;5125873;28;20458;-58
2021/09/21 06:11:07;;;;;;;5.73;4.20;;;;;;;;;;5136968;28;20446;-55
2021/09/21 06:13:34;;;;;;;7.30;4.53;;;;;;;;;;5136948;28;20474;-54
2021/09/21 06:16:02;;;;;;;5.90;4.30;;;;;;;;;;5124919;28;20444;-60
2021/09/21 06:18:54;;;;;;;8.60;3.80;;;;;;;;;;5116358;28;20724;-62
2021/09/21 06:21:22;;;;;;;6.73;4.13;;;;;;;;;;5119451;28;20476;-58
2021/09/21 06:23:58;;;;;;;5.80;3.50;;;;;;;;;;5133276;28;20497;-60
2021/09/21 06:26:38;;;;;;;7.90;3.67;;;;;;;;;;5119308;28;20470;-61
2021/09/21 06:29:05;;;;;;;5.40;3.10;;;;;;;;;;5134250;28;20492;-55
2021/09/21 06:31:33;;;;;;;5.93;3.60;;;;;;;;;;5135653;28;20546;-59
2021/09/21 06:34:08;;;;;;;6.07;3.57;;;;;;;;;;5134350;28;20486;-58
2021/09/21 06:36:36;;;;;;;6.97;4.23;;;;;;;;;;5136547;28;20460;-57
2021/09/21 06:39:04;;;;;;;8.07;5.10;;;;;;;;;;5135804;28;20427;-59
2021/09/21 06:41:53;;;;;;;8.60;4.67;;;;;;;;;;5132205;28;20502;-58
2021/09/21 06:44:21;;;;;;;9.10;3.50;;;;;;;;;;5114801;28;20485;-59
2021/09/21 06:46:50;;;;;;;9.43;4.87;;;;;;;;;;5114479;28;20479;-59
2021/09/21 06:49:20;;;;;;;6.77;4.10;;;;;;;;;;5127159;28;20458;-57
2021/09/21 06:51:47;;;;;;;9.13;4.10;;;;;;;;;;5135103;28;20473;-61
2021/09/21 06:54:30;;;;;;;11.90;4.70;;;;;;;;;;5127584;28;20496;-55
2021/09/21 06:56:57;;;;;;;7.10;4.40;;;;;;;;;;5113645;28;20494;-61
2021/09/21 06:59:26;;;;;;;7.37;3.43;;;;;;;;;;5113252;28;20466;-55
2021/09/21 07:02:05;;;;;;;5.70;3.97;;;;;;;;;;5114440;28;20524;-60
2021/09/21 07:04:34;;;;;;;6.47;3.80;;;;;;;;;;5133685;28;20482;-61
2021/09/21 07:07:02;;;;;;;5.83;3.63;;;;;;;;;;5132818;28;20466;-58
2021/09/21 07:09:30;;;;;;;4.30;2.97;;;;;;;;;;5133668;28;20449;-52
2021/09/21 07:11:57;;;;;;;4.83;3.47;;;;;;;;;;5133585;28;20480;-58
2021/09/21 07:14:40;;;;;;;5.50;3.30;;;;;;;;;;5134160;28;20474;-57
2021/09/21 07:17:07;;;;;;;5.17;2.97;;;;;;;;;;5134448;28;20450;-58
2021/09/21 07:19:49;;;;;;;5.10;3.10;;;;;;;;;;5133818;28;20479;-56
2021/09/21 07:22:24;;;;;;;10.60;3.53;;;;;;;;;;5132147;28;20446;-55
2021/09/21 07:24:51;;;;;;;4.60;2.93;;;;;;;;;;5132370;28;20494;-56
2021/09/21 07:27:19;;;;;;;5.70;3.67;;;;;;;;;;5132673;28;20450;-57
2021/09/21 07:30:08;;;;;;;4.90;2.63;;;;;;;;;;5132929;28;20571;-58
2021/09/21 07:32:40;;;;;;;6.03;3.20;;;;;;;;;;5132200;28;20458;-62
2021/09/21 07:35:10;;;;;;;4.70;3.00;;;;;;;;;;5131902;28;20455;-55
2021/09/21 07:37:50;;;;;;;4.60;2.50;;;;;;;;;;5128296;28;20447;-61
2021/09/21 07:40:20;;;;;;;8.10;3.70;;;;;;;;;;5113300;28;20474;-61
2021/09/21 07:42:47;;;;;;;4.37;2.93;;;;;;;;;;5110660;28;20458;-55
2021/09/21 07:45:14;;;;;;;4.67;3.03;;;;;;;;;;5110769;28;20459;-60
2021/09/21 07:47:42;;;;;;;5.43;3.00;;;;;;;;;;5112557;28;20455;-60
2021/09/21 07:50:18;;;;;;;4.93;3.20;;;;;;;;;;5112552;28;20455;-58
2021/09/21 07:52:50;;;;;;;5.90;3.07;;;;;;;;;;5112838;28;20512;-60
2021/09/21 07:55:20;;;;;;;6.30;2.93;;;;;;;;;;5111220;28;20458;-60
2021/09/21 07:57:51;;;;;;;4.90;2.90;;;;;;;;;;5111941;28;20504;-56
2021/09/21 08:00:21;;;;;;;6.40;3.03;;;;;;;;;;5118755;28;20447;-54
2021/09/21 08:02:53;;;;;;;6.50;3.10;;;;;;;;;;5118065;28;20521;-59
2021/09/21 08:05:21;;;;;;;5.83;3.47;;;;;;;;;;5111790;28;20428;-58
2021/09/21 08:08:00;;;;;;;5.77;3.70;;;;;;;;;;5111790;28;20436;-57
2021/09/21 08:10:27;;;;;;;4.77;2.80;;;;;;;;;;5127140;28;20470;-60
2021/09/21 08:12:55;;;;;;;6.60;3.50;;;;;;;;;;5132018;28;20446;-55
2021/09/21 08:15:26;;;;;;;8.40;3.57;;;;;;;;;;5131967;28;20454;-59
2021/09/21 08:17:54;;;;;;;6.90;3.50;;;;;;;;;;5129427;28;20536;-58
2021/09/21 08:20:22;;;;;;;4.60;3.27;;;;;;;;;;5128785;28;20605;-51
2021/09/21 08:22:50;;;;;;;4.67;3.20;;;;;;;;;;5113714;28;20520;-54
2021/09/21 08:25:19;;;;;;;4.03;2.87;;;;;;;;;;5131348;28;20433;-60
2021/09/21 08:27:48;;;;;;;4.37;2.83;;;;;;;;;;5131852;28;20442;-58
2021/09/21 08:30:17;;;;;;;5.73;3.10;;;;;;;;;;5125535;28;20462;-60
2021/09/21 08:32:54;;;;;;;5.50;2.87;;;;;;;;;;5121960;28;20454;-59
2021/09/21 08:35:23;;;;;;;6.63;3.53;;;;;;;;;;5132245;28;20450;-56
2021/09/21 08:37:53;;;;;;;4.70;3.13;;;;;;;;;;5134115;28;20442;-55
2021/09/21 08:40:26;;;;;;;5.47;3.17;;;;;;;;;;5134145;28;20434;-56
2021/09/21 08:43:28;;;;;;;6.47;4.17;;;;;;;;;;5131472;28;20455;-57
2021/09/21 08:45:56;;;;;;;5.00;3.00;;;;;;;;;;5136763;28;20456;-61
2021/09/21 08:48:23;;;;;;;5.10;3.47;;;;;;;;;;5138038;28;20473;-61
2021/09/21 08:50:59;;;;;;;8.00;3.90;;;;;;;;;;5138501;28;20458;-60
2021/09/21 08:53:27;;;;;;;11.07;4.80;;;;;;;;;;5139093;28;20458;-50
2021/09/21 08:55:55;;;;;;;6.57;3.10;;;;;;;;;;5138648;28;20446;-59
2021/09/21 08:58:25;;;;;;;4.50;2.90;;;;;;;;;;5138289;28;20498;-59
2021/09/21 09:00:53;;;;;;;6.67;2.33;;;;;;;;;;5138424;28;20430;-60
2021/09/21 09:03:22;;;;;;;4.37;2.53;;;;;;;;;;5137807;28;20490;-58
2021/09/21 09:05:51;;;;;;;4.50;2.40;;;;;;;;;;5138515;28;20521;-54
2021/09/21 09:08:34;;;;;;;4.60;2.90;;;;;;;;;;5138290;28;20455;-62
2021/09/21 09:11:14;;;;;;;4.30;2.50;;;;;;;;;;5137864;28;20449;-57
2021/09/21 09:13:42;;;;;;;3.60;2.30;;;;;;;;;;5130417;28;20447;-52
2021/09/21 09:16:15;;;;;;;6.50;2.70;;;;;;;;;;5116874;28;20427;-58
2021/09/21 09:18:49;;;;;;;3.90;2.40;;;;;;;;;;5125034;28;20481;-57
2021/09/21 09:21:22;;;;;;;5.00;3.07;;;;;;;;;;5137014;28;20503;-53
2021/09/21 09:23:55;;;;;;;7.03;2.50;;;;;;;;;;5136758;28;20482;-56
2021/09/21 09:26:24;;;;;;;4.43;3.50;;;;;;;;;;5135894;28;20518;-57
2021/09/21 09:28:52;;;;;;;4.90;2.80;;;;;;;;;;5137228;28;20454;-57
2021/09/21 09:31:27;;;;;;;4.17;2.60;;;;;;;;;;5128042;28;20430;-56
2021/09/21 09:34:05;;;;;;;5.03;2.43;;;;;;;;;;5136415;28;20513;-60
2021/09/21 09:36:45;;;;;;;5.10;2.07;;;;;;;;;;5131321;28;20455;-58
2021/09/21 09:39:14;;;;;;;6.80;2.60;;;;;;;;;;5135894;28;20516;-60
2021/09/21 09:41:42;;;;;;;7.43;3.10;;;;;;;;;;5136002;28;20515;-62
2021/09/21 09:44:29;;;;;;;5.80;2.20;;;;;;;;;;5134899;28;20508;-59
2021/09/21 09:46:59;;;;;;;3.77;2.37;;;;;;;;;;5125719;28;20457;-60
2021/09/21 09:49:28;;;;;;;3.13;2.17;;;;;;;;;;5124678;28;20439;-60
2021/09/21 09:51:58;;;;;;;3.60;2.33;;;;;;;;;;5133500;28;20460;-60
2021/09/21 09:54:27;;;;;;;4.00;2.63;;;;;;;;;;5124129;28;20470;-58
2021/09/21 09:57:00;;;;;;;4.17;2.33;;;;;;;;;;5127625;28;20462;-59
2021/09/21 09:59:38;;;;;;;5.40;2.57;;;;;;;;;;5135724;28;20460;-56
2021/09/21 10:02:10;;;;;;;4.63;2.47;;;;;;;;;;5136420;28;20453;-59
2021/09/21 10:04:49;;;;;;;5.33;2.93;;;;;;;;;;5133522;28;20740;-60
2021/09/21 10:07:18;;;;;;;8.97;3.83;;;;;;;;;;5134986;28;20522;-60
2021/09/21 10:09:47;;;;;;;5.23;2.00;;;;;;;;;;5135292;28;20476;-57
2021/09/21 10:12:15;;;;;;;5.27;3.07;;;;;;;;;;5120653;28;20469;-55
2021/09/21 10:14:43;;;;;;;3.40;2.33;;;;;;;;;;5127816;28;20645;-55
2021/09/21 10:17:10;;;;;;;4.07;2.57;;;;;;;;;;5111966;28;20474;-58
2021/09/21 10:19:43;;;;;;;3.67;2.37;;;;;;;;;;5119392;28;20450;-61
2021/09/21 10:22:10;;;;;;;5.10;2.50;;;;;;;;;;5129688;28;20450;-57
2021/09/21 10:24:54;;;;;;;5.80;2.83;;;;;;;;;;5133742;28;20486;-57
2021/09/21 10:27:25;;;;;;;4.87;2.80;;;;;;;;;;5129954;28;20477;-62
2021/09/21 10:30:05;;;;;;;5.00;2.40;;;;;;;;;;5122371;28;20458;-59
2021/09/21 10:32:43;;;;;;;6.03;2.93;;;;;;;;;;5124036;28;20450;-58
2021/09/21 10:35:13;;;;;;;4.07;2.30;;;;;;;;;;5131184;28;20483;-61
2021/09/21 10:37:40;;;;;;;13.00;7.90;;;;;;;;;;5134900;28;20462;-59
2021/09/21 10:40:18;;;;;;;8.37;2.63;;;;;;;;;;5135074;28;20491;-58
2021/09/21 10:42:51;;;;;;;4.70;2.73;;;;;;;;;;5135715;28;20468;-62
2021/09/21 10:45:25;;;;;;;9.43;3.23;;;;;;;;;;5135114;28;20485;-57
2021/09/21 10:48:02;;;;;;;3.63;2.40;;;;;;;;;;5135839;28;20887;-59
2021/09/21 10:50:30;;;;;;;4.73;2.60;;;;;;;;;;5131132;28;20472;-62
2021/09/21 10:53:04;;;;;;;5.10;2.10;;;;;;;;;;5114789;28;20535;-57
2021/09/21 10:55:37;;;;;;;3.87;2.10;;;;;;;;;;5119559;28;20636;-61
2021/09/21 10:58:06;;;;;;;5.30;2.47;;;;;;;;;;5134913;28;20426;-59
2021/09/21 11:00:49;;;;;;;4.47;2.90;;;;;;;;;;5117620;28;20447;-58
2021/09/21 11:03:17;;;;;;;3.47;1.97;;;;;;;;;;5114717;28;20483;-58
2021/09/21 11:05:46;;;;;;;7.10;2.50;;;;;;;;;;5114114;28;20518;-55
2021/09/21 11:08:14;;;;;;;4.63;2.20;;;;;;;;;;5113480;28;20451;-61
2021/09/21 11:10:47;;;;;;;4.57;2.10;;;;;;;;;;5120930;28;20450;-57
2021/09/21 11:13:28;;;;;;;4.70;2.50;;;;;;;;;;5133556;28;20442;-56
2021/09/21 11:15:58;;;;;;;3.93;2.07;;;;;;;;;;5133223;28;20442;-62
2021/09/21 11:18:26;;;;;;;4.07;2.60;;;;;;;;;;5124936;28;20581;-57
2021/09/21 11:20:56;;;;;;;4.30;2.20;;;;;;;;;;5114081;28;20463;-60
2021/09/21 11:23:36;;;;;;;4.83;2.40;;;;;;;;;;5113152;28;20474;-57
2021/09/21 11:26:07;;;;;;;4.60;3.00;;;;;;;;;;5112778;28;20443;-56
2021/09/21 11:28:45;;;;;;;5.80;3.30;;;;;;;;;;5115024;28;20431;-63
2021/09/21 11:31:13;;;;;;;3.63;2.33;;;;;;;;;;5114506;28;20522;-58
2021/09/21 11:33:45;;;;;;;4.73;2.40;;;;;;;;;;5112032;28;20451;-61
2021/09/21 11:36:19;;;;;;;6.67;2.40;;;;;;;;;;5112889;28;20451;-60
2021/09/21 11:38:49;;;;;;;4.73;2.50;;;;;;;;;;5122561;28;20453;-59
2021/09/21 11:41:33;;;;;;;5.33;2.43;;;;;;;;;;5116313;28;20533;-56
2021/09/21 11:44:01;;;;;;;4.23;2.73;;;;;;;;;;5125721;28;20447;-57
2021/09/21 11:47:03;;;;;;;5.17;2.50;;;;;;;;;;5128948;28;20507;-61
2021/09/21 11:49:37;;;;;;;3.70;2.13;;;;;;;;;;5123990;28;20480;-60
2021/09/21 11:55:16;;;;;;;3.80;2.40;;;;;;;;;;5114301;28;20428;-59
2021/09/21 11:57:47;;;;;;;6.00;2.13;;;;;;;;;;5117294;28;20440;-62
2021/09/21 12:03:18;;;;;;;5.37;2.67;;;;;;;;;;5112010;28;20450;-58
2021/09/21 12:05:52;;;;;;;4.03;2.50;;;;;;;;;;5131471;28;20486;-59
2021/09/21 12:08:21;;;;;;;8.60;2.70;;;;;;;;;;5127555;28;20497;-61
2021/09/21 12:10:55;;;;;;;4.00;2.23;;;;;;;;;;5125362;28;20465;-56
2021/09/21 12:13:42;;;;;;;5.03;2.83;;;;;;;;;;5132192;28;20446;-61
2021/09/21 12:16:10;;;;;;;11.70;5.17;;;;;;;;;;5132496;28;20446;-57
2021/09/21 12:18:39;;;;;;;19.57;3.57;;;;;;;;;;5129772;28;20520;-55
2021/09/21 12:21:10;;;;;;;6.07;2.37;;;;;;;;;;5112476;28;20516;-56
2021/09/21 12:23:41;;;;;;;3.10;1.97;;;;;;;;;;5123847;28;20459;-61
2021/09/21 12:26:11;;;;;;;4.43;2.80;;;;;;;;;;5111381;28;20502;-60
2021/09/21 12:28:56;;;;;;;4.30;2.50;;;;;;;;;;5111068;28;20486;-57
2021/09/21 12:31:27;;;;;;;6.37;2.33;;;;;;;;;;5124037;28;20564;-60
2021/09/21 12:33:57;;;;;;;3.70;2.37;;;;;;;;;;5125981;28;20450;-60
2021/09/21 12:36:27;;;;;;;7.53;2.80;;;;;;;;;;5110162;28;20566;-60
2021/09/21 12:39:06;;;;;;;4.23;2.37;;;;;;;;;;5106050;28;20466;-61
2021/09/21 12:41:43;;;;;;;5.30;2.97;;;;;;;;;;5110829;28;20531;-60
2021/09/21 12:44:15;;;;;;;5.30;2.97;;;;;;;;;;5110410;28;20459;-60
2021/09/21 12:46:46;;;;;;;5.97;2.80;;;;;;;;;;5120751;28;20469;-58
2021/09/21 12:49:15;;;;;;;7.13;3.10;;;;;;;;;;5130502;28;20450;-61
2021/09/21 12:51:50;;;;;;;3.60;2.50;;;;;;;;;;5131899;28;20431;-59
2021/09/21 12:54:18;;;;;;;5.80;3.00;;;;;;;;;;5126509;28;20533;-58
2021/09/21 12:56:48;;;;;;;3.70;2.47;;;;;;;;;;5126939;28;20483;-60
2021/09/21 12:59:16;;;;;;;3.80;2.10;;;;;;;;;;5132011;28;20454;-60
2021/09/21 13:01:48;;;;;;;3.20;2.00;;;;;;;;;;5132924;28;20470;-58
2021/09/21 13:04:26;;;;;;;4.47;2.40;;;;;;;;;;5131816;28;20426;-57
2021/09/21 13:06:53;;;;;;;4.53;1.87;;;;;;;;;;5131070;28;20534;-60
2021/09/21 13:09:24;;;;;;;5.67;2.90;;;;;;;;;;5128345;28;20460;-61
2021/09/21 13:12:06;;;;;;;3.53;2.07;;;;;;;;;;5120875;28;20501;-60
2021/09/21 13:14:40;;;;;;;4.00;2.63;;;;;;;;;;5116062;28;20467;-62
2021/09/21 13:20:12;;;;;;;4.30;2.13;;;;;;;;;;5112406;28;20451;-62
2021/09/21 13:22:57;;;;;;;3.87;2.73;;;;;;;;;;5119130;28;20750;-58
2021/09/21 13:25:26;;;;;;;4.43;2.60;;;;;;;;;;5097680;28;20528;-60
2021/09/21 13:27:59;;;;;;;7.67;2.20;;;;;;;;;;5130873;28;20509;-59
2021/09/21 13:30:32;;;;;;;4.30;2.20;;;;;;;;;;5123362;28;20904;-60
2021/09/21 13:33:01;;;;;;;10.37;5.20;;;;;;;;;;5134791;28;20506;-59
2021/09/21 13:35:28;;;;;;;4.63;3.10;;;;;;;;;;5135437;28;20471;-58
2021/09/21 13:37:56;;;;;;;4.83;2.27;;;;;;;;;;5121270;28;20466;-60
2021/09/21 13:40:24;;;;;;;4.20;2.17;;;;;;;;;;5134436;28;20434;-54
2021/09/21 13:42:56;;;;;;;3.97;2.37;;;;;;;;;;5134398;28;20441;-59
2021/09/21 13:45:25;;;;;;;3.20;2.20;;;;;;;;;;5134290;28;20513;-61
2021/09/21 13:47:54;;;;;;;3.70;2.30;;;;;;;;;;5125138;28;20497;-54
2021/09/21 13:50:41;;;;;;;4.63;2.70;;;;;;;;;;5118765;28;20463;-62
2021/09/21 13:53:22;;;;;;;7.57;5.77;;;;;;;;;;5112954;28;20519;-58
2021/09/21 13:55:53;;;;;;;5.43;2.80;;;;;;;;;;5130600;28;20717;-60
2021/09/21 13:58:24;;;;;;;5.17;3.50;;;;;;;;;;5123072;28;20465;-62
2021/09/21 14:00:55;;;;;;;5.97;3.30;;;;;;;;;;5119032;28;20435;-61
2021/09/21 14:06:36;;;;;;;4.20;2.50;;;;;;;;;;5128685;28;20500;-60
2021/09/21 14:09:06;;;;;;;6.50;3.20;;;;;;;;;;5133488;28;20458;-56
2021/09/21 14:11:33;;;;;;;6.83;1.93;;;;;;;;;;5134019;28;20458;-55
2021/09/21 14:14:02;;;;;;;6.60;3.30;;;;;;;;;;5136105;28;20503;-55
2021/09/21 14:16:33;;;;;;;5.20;2.97;;;;;;;;;;5113729;28;20436;-60
2021/09/21 14:19:08;;;;;;;5.20;3.03;;;;;;;;;;5120145;28;20478;-62
2021/09/21 14:21:44;;;;;;;7.50;3.90;;;;;;;;;;5133669;28;20502;-56
2021/09/21 14:24:14;;;;;;;8.63;2.93;;;;;;;;;;5120451;28;20443;-60
2021/09/21 14:26:46;;;;;;;4.93;2.37;;;;;;;;;;5135024;28;20499;-61
2021/09/21 14:29:16;;;;;;;4.07;2.13;;;;;;;;;;5120474;28;20470;-61
2021/09/21 14:34:41;;;;;;;2.97;1.80;;;;;;;;;;5113305;28;20489;-59
2021/09/21 14:37:16;;;;;;;5.07;2.57;;;;;;;;;;5122913;28;20991;-61
2021/09/21 14:42:36;;;;;;;4.97;2.70;;;;;;;;;;5112418;28;20508;-62
2021/09/21 14:45:05;;;;;;;4.53;2.43;;;;;;;;;;5121449;28;20488;-61
2021/09/21 14:47:44;;;;;;;5.73;2.50;;;;;;;;;;5131780;28;20474;-60
2021/09/21 14:50:13;;;;;;;5.50;3.00;;;;;;;;;;5116979;28;20553;-57
2021/09/21 14:52:43;;;;;;;3.23;2.00;;;;;;;;;;5129414;28;20451;-58
2021/09/21 14:55:24;;;;;;;3.43;1.93;;;;;;;;;;5114919;28;20459;-60
2021/09/21 14:57:52;;;;;;;4.60;2.23;;;;;;;;;;5120153;28;20489;-58
2021/09/21 15:00:23;;;;;;;4.40;2.50;;;;;;;;;;5125191;28;20463;-61
2021/09/21 15:03:02;;;;;;;6.13;2.57;;;;;;;;;;5125920;28;20462;-59
2021/09/21 15:05:31;;;;;;;8.57;3.00;;;;;;;;;;5116861;28;20499;-60
2021/09/21 15:08:01;;;;;;;3.53;2.17;;;;;;;;;;5130505;28;20449;-60
2021/09/21 15:10:30;;;;;;;5.10;2.90;;;;;;;;;;5120187;28;20455;-58
2021/09/21 15:13:04;;;;;;;4.47;2.20;;;;;;;;;;5127785;28;20637;-58
2021/09/21 15:16:00;;;;;;;5.80;2.67;;;;;;;;;;5119132;28;20865;-62
2021/09/21 15:19:02;;;;;;;3.60;2.13;;;;;;;;;;5121557;28;20496;-56
2021/09/21 15:21:32;;;;;;;5.17;2.23;;;;;;;;;;5129723;28;20468;-59
2021/09/21 15:24:10;;;;;;;4.90;2.60;;;;;;;;;;5123201;28;20485;-59
2021/09/21 15:26:40;;;;;;;8.53;2.40;;;;;;;;;;5114357;28;20497;-60
2021/09/21 15:29:10;;;;;;;4.00;2.00;;;;;;;;;;5114396;28;20920;-61
2021/09/21 15:31:40;;;;;;;6.40;4.23;;;;;;;;;;5131756;28;20523;-61
2021/09/21 15:34:13;;;;;;;5.10;3.57;;;;;;;;;;5131494;28;20478;-62
2021/09/21 15:36:44;;;;;;;4.03;2.50;;;;;;;;;;5116202;28;20573;-56
2021/09/21 15:39:23;;;;;;;6.63;2.33;;;;;;;;;;5128844;28;20458;-61
2021/09/21 15:41:53;;;;;;;4.53;2.63;;;;;;;;;;5129092;28;20470;-60
2021/09/21 15:44:27;;;;;;;4.10;2.30;;;;;;;;;;5128260;28;20488;-62
2021/09/21 15:46:55;;;;;;;16.20;3.23;;;;;;;;;;5131180;28;20462;-58
2021/09/21 15:49:23;;;;;;;5.73;3.03;;;;;;;;;;5131898;28;20484;-59